sensor_id;sensor_type;location;lat;lon;timestamp;pressure;altitude;pressure_sealevel;temperature;humidity
61676;BME280;47574;52.090;5.244;2022-12-29T00:01:35;99894.0;;;16.75;56.97
61676;BME280;47574;52.090;5.244;2022-12-29T00:03:12;99890.0;;;16.43;57.75
61676;BME280;47574;52.090;5.244;2022-12-29T00:06:26;99884.0;;;16.31;58.11
61676;BME280;47574;52.090;5.244;2022-12-29T00:08:03;99880.0;;;16.52;57.55
61676;BME280;47574;52.090;5.244;2022-12-29T00:09:39;99874.0;;;16.72;56.9
61676;BME280;47574;52.090;5.244;2022-12-29T00:12:55;99868.0;;;16.66;56.92
61676;BME280;47574;52.090;5.244;2022-12-29T00:14:32;99869.0;;;16.93;56.24
61676;BME280;47574;52.090;5.244;2022-12-29T00:16:08;99860.0;;;16.9;56.02
61676;BME280;47574;52.090;5.244;2022-12-29T00:17:44;99860.0;;;16.23;57.58
61676;BME280;47574;52.090;5.244;2022-12-29T00:20:56;99852.0;;;16.43;57.21
61676;BME280;47574;52.090;5.244;2022-12-29T00:22:33;99857.0;;;16.68;56.73
61676;BME280;47574;52.090;5.244;2022-12-29T00:24:13;99850.0;;;16.37;57.4
61676;BME280;47574;52.090;5.244;2022-12-29T00:27:27;99855.0;;;16.55;57.29
61676;BME280;47574;52.090;5.244;2022-12-29T00:29:03;99851.0;;;16.54;57.31
61676;BME280;47574;52.090;5.244;2022-12-29T00:30:39;99849.0;;;17.0;56.13
61676;BME280;47574;52.090;5.244;2022-12-29T00:32:16;99853.0;;;16.79;56.65
61676;BME280;47574;52.090;5.244;2022-12-29T00:35:31;99849.0;;;16.75;56.86
61676;BME280;47574;52.090;5.244;2022-12-29T00:37:12;99845.0;;;16.72;56.74
61676;BME280;47574;52.090;5.244;2022-12-29T00:38:51;99840.0;;;16.61;56.85
61676;BME280;47574;52.090;5.244;2022-12-29T00:42:08;99841.0;;;16.72;56.61
61676;BME280;47574;52.090;5.244;2022-12-29T00:43:45;99837.0;;;16.77;56.53
61676;BME280;47574;52.090;5.244;2022-12-29T00:45:21;99830.0;;;16.84;56.45
61676;BME280;47574;52.090;5.244;2022-12-29T00:46:57;99822.0;;;17.13;55.46
61676;BME280;47574;52.090;5.244;2022-12-29T00:50:10;99816.0;;;16.97;55.78
61676;BME280;47574;52.090;5.244;2022-12-29T00:51:46;99812.0;;;16.84;56.25
61676;BME280;47574;52.090;5.244;2022-12-29T00:53:23;99812.0;;;16.2;57.41
61676;BME280;47574;52.090;5.244;2022-12-29T00:56:35;99813.0;;;16.56;56.74
61676;BME280;47574;52.090;5.244;2022-12-29T00:58:13;99800.0;;;16.64;56.68
61676;BME280;47574;52.090;5.244;2022-12-29T00:59:49;99802.0;;;16.54;56.9
61676;BME280;47574;52.090;5.244;2022-12-29T01:03:02;99802.0;;;16.46;57.02
61676;BME280;47574;52.090;5.244;2022-12-29T01:04:38;99798.0;;;16.77;56.22
61676;BME280;47574;52.090;5.244;2022-12-29T01:06:14;99800.0;;;16.7;56.55
61676;BME280;47574;52.090;5.244;2022-12-29T01:07:51;99797.0;;;16.68;56.69
61676;BME280;47574;52.090;5.244;2022-12-29T01:11:04;99796.0;;;16.82;56.67
61676;BME280;47574;52.090;5.244;2022-12-29T01:12:42;99790.0;;;16.63;57.39
61676;BME280;47574;52.090;5.244;2022-12-29T01:14:19;99789.0;;;16.64;57.59
61676;BME280;47574;52.090;5.244;2022-12-29T01:17:33;99793.0;;;16.5;58.13
61676;BME280;47574;52.090;5.244;2022-12-29T01:19:10;99797.0;;;16.77;57.64
61676;BME280;47574;52.090;5.244;2022-12-29T01:20:47;99789.0;;;16.45;58.83
61676;BME280;47574;52.090;5.244;2022-12-29T01:24:00;99785.0;;;16.38;59.42
61676;BME280;47574;52.090;5.244;2022-12-29T01:25:37;99791.0;;;16.54;59.24
61676;BME280;47574;52.090;5.244;2022-12-29T01:27:14;99791.0;;;16.34;59.67
61676;BME280;47574;52.090;5.244;2022-12-29T01:28:50;99778.0;;;16.09;60.85
61676;BME280;47574;52.090;5.244;2022-12-29T01:32:03;99777.0;;;16.02;61.28
61676;BME280;47574;52.090;5.244;2022-12-29T01:33:40;99798.0;;;16.0;61.36
61676;BME280;47574;52.090;5.244;2022-12-29T01:35:17;99803.0;;;15.58;62.27
61676;BME280;47574;52.090;5.244;2022-12-29T01:38:31;99795.0;;;15.79;62.0
61676;BME280;47574;52.090;5.244;2022-12-29T01:40:09;99800.0;;;15.62;62.66
61676;BME280;47574;52.090;5.244;2022-12-29T01:41:46;99793.0;;;15.49;63.09
61676;BME280;47574;52.090;5.244;2022-12-29T01:43:38;99808.0;;;15.82;62.23
61676;BME280;47574;52.090;5.244;2022-12-29T01:46:54;99808.0;;;15.9;62.22
61676;BME280;47574;52.090;5.244;2022-12-29T01:48:30;99799.0;;;16.03;61.74
61676;BME280;47574;52.090;5.244;2022-12-29T01:50:10;99808.0;;;15.73;62.36
61676;BME280;47574;52.090;5.244;2022-12-29T01:51:53;99794.0;;;16.09;61.52
61676;BME280;47574;52.090;5.244;2022-12-29T01:55:12;99794.0;;;15.75;62.1
61676;BME280;47574;52.090;5.244;2022-12-29T01:56:50;99783.0;;;15.33;63.45
61676;BME280;47574;52.090;5.244;2022-12-29T01:58:29;99786.0;;;15.48;62.68
61676;BME280;47574;52.090;5.244;2022-12-29T02:00:11;99794.0;;;15.62;62.41
61676;BME280;47574;52.090;5.244;2022-12-29T02:03:27;99788.0;;;15.88;61.56
61676;BME280;47574;52.090;5.244;2022-12-29T02:05:10;99797.0;;;15.63;62.11
61676;BME280;47574;52.090;5.244;2022-12-29T02:06:53;99806.0;;;15.96;61.22
61676;BME280;47574;52.090;5.244;2022-12-29T02:08:32;99801.0;;;15.7;61.71
61676;BME280;47574;52.090;5.244;2022-12-29T02:11:44;99798.0;;;15.92;61.27
61676;BME280;47574;52.090;5.244;2022-12-29T02:13:23;99809.0;;;15.77;61.46
61676;BME280;47574;52.090;5.244;2022-12-29T02:15:02;99810.0;;;15.54;62.26
61676;BME280;47574;52.090;5.244;2022-12-29T02:18:42;99819.0;;;15.91;61.27
61676;BME280;47574;52.090;5.244;2022-12-29T02:20:56;99819.0;;;16.27;60.18
61676;BME280;47574;52.090;5.244;2022-12-29T02:25:20;99803.0;;;16.11;60.29
61676;BME280;47574;52.090;5.244;2022-12-29T02:27:29;99808.0;;;15.56;61.27
61676;BME280;47574;52.090;5.244;2022-12-29T02:30:57;99814.0;;;16.09;59.79
61676;BME280;47574;52.090;5.244;2022-12-29T02:32:45;99811.0;;;15.85;60.32
61676;BME280;47574;52.090;5.244;2022-12-29T02:34:35;99810.0;;;16.11;59.29
61676;BME280;47574;52.090;5.244;2022-12-29T02:36:24;99803.0;;;16.06;59.24
61676;BME280;47574;52.090;5.244;2022-12-29T02:38:13;99796.0;;;16.13;58.88
61676;BME280;47574;52.090;5.244;2022-12-29T02:40:01;99780.0;;;16.25;58.17
61676;BME280;47574;52.090;5.244;2022-12-29T02:43:42;99791.0;;;15.72;58.54
61676;BME280;47574;52.090;5.244;2022-12-29T02:45:32;99791.0;;;15.64;58.85
61676;BME280;47574;52.090;5.244;2022-12-29T02:47:20;99793.0;;;15.91;58.41
61676;BME280;47574;52.090;5.244;2022-12-29T02:49:05;99783.0;;;15.81;58.32
61676;BME280;47574;52.090;5.244;2022-12-29T02:50:52;99786.0;;;15.97;57.96
61676;BME280;47574;52.090;5.244;2022-12-29T02:52:36;99793.0;;;15.81;57.82
61676;BME280;47574;52.090;5.244;2022-12-29T02:55:53;99791.0;;;16.13;57.21
61676;BME280;47574;52.090;5.244;2022-12-29T02:57:32;99794.0;;;15.81;57.75
61676;BME280;47574;52.090;5.244;2022-12-29T02:59:09;99803.0;;;15.83;57.85
61676;BME280;47574;52.090;5.244;2022-12-29T03:03:08;99793.0;;;15.63;58.59
61676;BME280;47574;52.090;5.244;2022-12-29T03:05:03;99794.0;;;15.96;57.75
61676;BME280;47574;52.090;5.244;2022-12-29T03:06:57;99801.0;;;15.73;58.5
61676;BME280;47574;52.090;5.244;2022-12-29T03:08:44;99807.0;;;15.55;58.82
61676;BME280;47574;52.090;5.244;2022-12-29T03:10:33;99800.0;;;15.88;58.08
61676;BME280;47574;52.090;5.244;2022-12-29T03:12:24;99810.0;;;15.93;58.05
61676;BME280;47574;52.090;5.244;2022-12-29T03:15:57;99796.0;;;15.76;58.27
61676;BME280;47574;52.090;5.244;2022-12-29T03:17:45;99801.0;;;15.82;58.38
61676;BME280;47574;52.090;5.244;2022-12-29T03:21:11;99794.0;;;15.54;58.85
61676;BME280;47574;52.090;5.244;2022-12-29T03:22:53;99794.0;;;15.26;59.22
61676;BME280;47574;52.090;5.244;2022-12-29T03:24:36;99785.0;;;15.47;58.58
61676;BME280;47574;52.090;5.244;2022-12-29T03:26:26;99780.0;;;15.45;58.8
61676;BME280;47574;52.090;5.244;2022-12-29T03:28:07;99782.0;;;15.63;58.2
61676;BME280;47574;52.090;5.244;2022-12-29T03:31:26;99784.0;;;15.36;59.01
61676;BME280;47574;52.090;5.244;2022-12-29T03:33:05;99775.0;;;15.68;58.32
61676;BME280;47574;52.090;5.244;2022-12-29T03:34:46;99772.0;;;15.74;58.21
61676;BME280;47574;52.090;5.244;2022-12-29T03:36:28;99761.0;;;15.99;57.71
61676;BME280;47574;52.090;5.244;2022-12-29T03:39:55;99771.0;;;15.82;57.67
61676;BME280;47574;52.090;5.244;2022-12-29T03:41:32;99776.0;;;15.46;58.54
61676;BME280;47574;52.090;5.244;2022-12-29T03:43:10;99769.0;;;15.8;57.56
61676;BME280;47574;52.090;5.244;2022-12-29T03:44:48;99769.0;;;15.35;58.55
61676;BME280;47574;52.090;5.244;2022-12-29T03:48:06;99771.0;;;15.91;57.45
61676;BME280;47574;52.090;5.244;2022-12-29T03:49:42;99769.0;;;15.69;57.68
61676;BME280;47574;52.090;5.244;2022-12-29T03:51:20;99768.0;;;16.25;56.47
61676;BME280;47574;52.090;5.244;2022-12-29T03:54:35;99768.0;;;16.28;56.37
61676;BME280;47574;52.090;5.244;2022-12-29T03:56:11;99769.0;;;15.91;57.19
61676;BME280;47574;52.090;5.244;2022-12-29T03:59:24;99766.0;;;15.64;57.74
61676;BME280;47574;52.090;5.244;2022-12-29T04:02:36;99771.0;;;15.5;57.86
61676;BME280;47574;52.090;5.244;2022-12-29T04:04:12;99763.0;;;15.6;57.91
61676;BME280;47574;52.090;5.244;2022-12-29T04:05:49;99767.0;;;15.87;57.13
61676;BME280;47574;52.090;5.244;2022-12-29T04:09:02;99756.0;;;16.03;56.78
61676;BME280;47574;52.090;5.244;2022-12-29T04:10:39;99763.0;;;15.59;57.74
61676;BME280;47574;52.090;5.244;2022-12-29T04:12:16;99769.0;;;15.83;57.32
61676;BME280;47574;52.090;5.244;2022-12-29T04:15:29;99776.0;;;15.75;57.21
61676;BME280;47574;52.090;5.244;2022-12-29T04:17:05;99782.0;;;15.69;57.3
61676;BME280;47574;52.090;5.244;2022-12-29T04:18:42;99781.0;;;15.26;58.15
61676;BME280;47574;52.090;5.244;2022-12-29T04:20:19;99778.0;;;15.54;57.54
61676;BME280;47574;52.090;5.244;2022-12-29T04:23:33;99793.0;;;15.38;57.41
61676;BME280;47574;52.090;5.244;2022-12-29T04:25:11;99798.0;;;15.65;56.86
61676;BME280;47574;52.090;5.244;2022-12-29T04:26:47;99791.0;;;15.42;56.81
61676;BME280;47574;52.090;5.244;2022-12-29T04:30:00;99789.0;;;15.25;56.85
61676;BME280;47574;52.090;5.244;2022-12-29T04:31:36;99805.0;;;15.33;56.8
61676;BME280;47574;52.090;5.244;2022-12-29T04:33:13;99797.0;;;15.0;56.98
61676;BME280;47574;52.090;5.244;2022-12-29T04:36:26;99802.0;;;15.45;55.98
61676;BME280;47574;52.090;5.244;2022-12-29T04:38:03;99808.0;;;15.26;55.79
61676;BME280;47574;52.090;5.244;2022-12-29T04:39:39;99812.0;;;15.49;55.13
61676;BME280;47574;52.090;5.244;2022-12-29T04:41:15;99808.0;;;15.51;55.38
61676;BME280;47574;52.090;5.244;2022-12-29T04:44:28;99805.0;;;15.4;55.09
61676;BME280;47574;52.090;5.244;2022-12-29T04:46:04;99801.0;;;15.62;54.86
61676;BME280;47574;52.090;5.244;2022-12-29T04:47:41;99802.0;;;15.71;54.02
61676;BME280;47574;52.090;5.244;2022-12-29T04:50:53;99814.0;;;15.62;54.52
61676;BME280;47574;52.090;5.244;2022-12-29T04:52:30;99812.0;;;15.7;54.29
61676;BME280;47574;52.090;5.244;2022-12-29T04:54:07;99814.0;;;15.6;54.77
61676;BME280;47574;52.090;5.244;2022-12-29T04:57:24;99812.0;;;15.31;55.71
61676;BME280;47574;52.090;5.244;2022-12-29T04:59:02;99820.0;;;15.76;54.42
61676;BME280;47574;52.090;5.244;2022-12-29T05:00:38;99825.0;;;15.63;54.86
61676;BME280;47574;52.090;5.244;2022-12-29T05:02:15;99828.0;;;15.88;54.31
61676;BME280;47574;52.090;5.244;2022-12-29T05:05:27;99823.0;;;15.39;55.25
61676;BME280;47574;52.090;5.244;2022-12-29T05:07:04;99826.0;;;15.12;55.78
61676;BME280;47574;52.090;5.244;2022-12-29T05:08:41;99818.0;;;15.69;54.6
61676;BME280;47574;52.090;5.244;2022-12-29T05:11:54;99828.0;;;16.05;53.65
61676;BME280;47574;52.090;5.244;2022-12-29T05:15:08;99825.0;;;15.19;54.72
61676;BME280;47574;52.090;5.244;2022-12-29T05:18:22;99826.0;;;15.56;54.54
61676;BME280;47574;52.090;5.244;2022-12-29T05:19:58;99832.0;;;15.1;55.31
61676;BME280;47574;52.090;5.244;2022-12-29T05:21:35;99834.0;;;15.16;55.45
61676;BME280;47574;52.090;5.244;2022-12-29T05:23:13;99839.0;;;15.16;55.24
61676;BME280;47574;52.090;5.244;2022-12-29T05:26:25;99840.0;;;15.46;54.76
61676;BME280;47574;52.090;5.244;2022-12-29T05:28:02;99846.0;;;15.45;54.67
61676;BME280;47574;52.090;5.244;2022-12-29T05:29:39;99846.0;;;15.12;54.99
61676;BME280;47574;52.090;5.244;2022-12-29T05:32:51;99835.0;;;15.51;54.0
61676;BME280;47574;52.090;5.244;2022-12-29T05:34:28;99834.0;;;15.51;54.11
61676;BME280;47574;52.090;5.244;2022-12-29T05:36:07;99830.0;;;15.19;54.58
61676;BME280;47574;52.090;5.244;2022-12-29T05:37:44;99833.0;;;15.27;54.26
61676;BME280;47574;52.090;5.244;2022-12-29T05:40:57;99832.0;;;15.43;54.65
61676;BME280;47574;52.090;5.244;2022-12-29T05:42:33;99824.0;;;15.4;54.61
61676;BME280;47574;52.090;5.244;2022-12-29T05:44:09;99826.0;;;15.07;54.96
61676;BME280;47574;52.090;5.244;2022-12-29T05:47:24;99830.0;;;15.18;54.51
61676;BME280;47574;52.090;5.244;2022-12-29T05:49:01;99843.0;;;15.43;54.18
61676;BME280;47574;52.090;5.244;2022-12-29T05:50:37;99838.0;;;15.12;54.7
61676;BME280;47574;52.090;5.244;2022-12-29T05:53:49;99841.0;;;15.27;54.54
61676;BME280;47574;52.090;5.244;2022-12-29T05:55:26;99845.0;;;15.37;54.46
61676;BME280;47574;52.090;5.244;2022-12-29T05:57:03;99858.0;;;15.67;54.0
61676;BME280;47574;52.090;5.244;2022-12-29T06:00:16;99864.0;;;15.71;53.92
61676;BME280;47574;52.090;5.244;2022-12-29T06:01:52;99868.0;;;15.47;54.28
61676;BME280;47574;52.090;5.244;2022-12-29T06:03:28;99863.0;;;15.12;54.82
61676;BME280;47574;52.090;5.244;2022-12-29T06:05:05;99874.0;;;15.44;55.3
61676;BME280;47574;52.090;5.244;2022-12-29T06:08:19;99867.0;;;15.21;55.71
61676;BME280;47574;52.090;5.244;2022-12-29T06:09:55;99855.0;;;15.45;55.4
61676;BME280;47574;52.090;5.244;2022-12-29T06:11:32;99866.0;;;14.96;55.77
61676;BME280;47574;52.090;5.244;2022-12-29T06:14:45;99866.0;;;14.65;56.3
61676;BME280;47574;52.090;5.244;2022-12-29T06:16:22;99877.0;;;14.71;56.07
61676;BME280;47574;52.090;5.244;2022-12-29T06:17:58;99870.0;;;15.23;55.19
61676;BME280;47574;52.090;5.244;2022-12-29T06:19:36;99880.0;;;14.57;56.58
61676;BME280;47574;52.090;5.244;2022-12-29T06:22:48;99876.0;;;14.87;55.9
61676;BME280;47574;52.090;5.244;2022-12-29T06:24:25;99876.0;;;15.18;56.1
61676;BME280;47574;52.090;5.244;2022-12-29T06:26:02;99882.0;;;14.94;56.39
61676;BME280;47574;52.090;5.244;2022-12-29T06:29:17;99885.0;;;14.94;56.12
61676;BME280;47574;52.090;5.244;2022-12-29T06:30:53;99886.0;;;14.61;56.51
61676;BME280;47574;52.090;5.244;2022-12-29T06:32:29;99903.0;;;14.52;57.55
61676;BME280;47574;52.090;5.244;2022-12-29T06:35:43;99903.0;;;14.53;57.32
61676;BME280;47574;52.090;5.244;2022-12-29T06:37:20;99900.0;;;14.76;57.22
61676;BME280;47574;52.090;5.244;2022-12-29T06:38:56;99907.0;;;15.01;56.21
61676;BME280;47574;52.090;5.244;2022-12-29T06:40:34;99910.0;;;14.57;56.81
61676;BME280;47574;52.090;5.244;2022-12-29T06:43:46;99917.0;;;14.57;56.39
61676;BME280;47574;52.090;5.244;2022-12-29T06:45:23;99906.0;;;14.82;56.04
61676;BME280;47574;52.090;5.244;2022-12-29T06:47:00;99905.0;;;14.96;55.45
61676;BME280;47574;52.090;5.244;2022-12-29T06:50:13;99885.0;;;14.29;55.98
61676;BME280;47574;52.090;5.244;2022-12-29T06:51:50;99894.0;;;14.63;55.26
61676;BME280;47574;52.090;5.244;2022-12-29T06:53:29;99890.0;;;14.21;55.34
61676;BME280;47574;52.090;5.244;2022-12-29T06:56:42;99889.0;;;14.85;53.66
61676;BME280;47574;52.090;5.244;2022-12-29T06:58:20;99883.0;;;14.84;53.76
61676;BME280;47574;52.090;5.244;2022-12-29T06:59:56;99895.0;;;14.81;53.73
61676;BME280;47574;52.090;5.244;2022-12-29T07:01:32;99908.0;;;14.83;53.44
61676;BME280;47574;52.090;5.244;2022-12-29T07:04:46;99922.0;;;14.45;54.51
61676;BME280;47574;52.090;5.244;2022-12-29T07:06:22;99911.0;;;14.55;55.44
61676;BME280;47574;52.090;5.244;2022-12-29T07:07:59;99902.0;;;14.48;56.51
61676;BME280;47574;52.090;5.244;2022-12-29T07:11:12;99885.0;;;13.86;57.18
61676;BME280;47574;52.090;5.244;2022-12-29T07:12:48;99900.0;;;14.24;56.97
61676;BME280;47574;52.090;5.244;2022-12-29T07:14:26;99899.0;;;14.44;56.48
61676;BME280;47574;52.090;5.244;2022-12-29T07:16:05;99899.0;;;14.04;57.65
61676;BME280;47574;52.090;5.244;2022-12-29T07:19:19;99907.0;;;14.16;57.58
61676;BME280;47574;52.090;5.244;2022-12-29T07:20:56;99915.0;;;14.18;57.32
61676;BME280;47574;52.090;5.244;2022-12-29T07:22:32;99915.0;;;14.13;57.62
61676;BME280;47574;52.090;5.244;2022-12-29T07:25:45;99914.0;;;14.58;56.67
61676;BME280;47574;52.090;5.244;2022-12-29T07:27:21;99918.0;;;14.47;57.26
61676;BME280;47574;52.090;5.244;2022-12-29T07:29:00;99920.0;;;14.32;57.42
61676;BME280;47574;52.090;5.244;2022-12-29T07:32:14;99924.0;;;14.6;56.66
61676;BME280;47574;52.090;5.244;2022-12-29T07:33:50;99921.0;;;14.85;56.07
61676;BME280;47574;52.090;5.244;2022-12-29T07:35:27;99927.0;;;14.58;56.41
61676;BME280;47574;52.090;5.244;2022-12-29T07:37:04;99927.0;;;14.52;56.71
61676;BME280;47574;52.090;5.244;2022-12-29T07:40:19;99916.0;;;14.17;57.15
61676;BME280;47574;52.090;5.244;2022-12-29T07:41:56;99923.0;;;14.36;56.96
61676;BME280;47574;52.090;5.244;2022-12-29T07:43:32;99940.0;;;14.45;56.35
61676;BME280;47574;52.090;5.244;2022-12-29T07:46:47;99935.0;;;14.97;55.44
61676;BME280;47574;52.090;5.244;2022-12-29T07:48:23;99938.0;;;14.95;55.02
61676;BME280;47574;52.090;5.244;2022-12-29T07:49:59;99932.0;;;14.89;55.02
61676;BME280;47574;52.090;5.244;2022-12-29T07:51:36;99938.0;;;15.24;54.55
61676;BME280;47574;52.090;5.244;2022-12-29T07:54:51;99934.0;;;14.83;55.45
61676;BME280;47574;52.090;5.244;2022-12-29T07:56:27;99939.0;;;14.74;55.36
61676;BME280;47574;52.090;5.244;2022-12-29T07:58:04;99942.0;;;14.99;55.05
61676;BME280;47574;52.090;5.244;2022-12-29T08:01:16;99949.0;;;14.66;55.16
61676;BME280;47574;52.090;5.244;2022-12-29T08:02:53;99938.0;;;14.37;55.77
61676;BME280;47574;52.090;5.244;2022-12-29T08:04:29;99939.0;;;14.86;54.72
61676;BME280;47574;52.090;5.244;2022-12-29T08:07:45;99924.0;;;14.81;54.62
61676;BME280;47574;52.090;5.244;2022-12-29T08:09:21;99934.0;;;14.49;55.2
61676;BME280;47574;52.090;5.244;2022-12-29T08:10:57;99935.0;;;14.78;54.62
61676;BME280;47574;52.090;5.244;2022-12-29T08:12:34;99923.0;;;14.61;54.5
61676;BME280;47574;52.090;5.244;2022-12-29T08:15:47;99931.0;;;14.95;54.14
61676;BME280;47574;52.090;5.244;2022-12-29T08:17:23;99927.0;;;14.96;53.94
61676;BME280;47574;52.090;5.244;2022-12-29T08:18:59;99917.0;;;15.16;53.27
61676;BME280;47574;52.090;5.244;2022-12-29T08:22:13;99925.0;;;14.81;53.57
61676;BME280;47574;52.090;5.244;2022-12-29T08:23:49;99920.0;;;14.81;53.33
61676;BME280;47574;52.090;5.244;2022-12-29T08:25:25;99922.0;;;15.01;52.97
61676;BME280;47574;52.090;5.244;2022-12-29T08:28:38;99928.0;;;15.0;52.95
61676;BME280;47574;52.090;5.244;2022-12-29T08:30:14;99930.0;;;15.1;52.32
61676;BME280;47574;52.090;5.244;2022-12-29T08:31:51;99921.0;;;15.28;52.15
61676;BME280;47574;52.090;5.244;2022-12-29T08:33:27;99925.0;;;14.81;53.09
61676;BME280;47574;52.090;5.244;2022-12-29T08:36:42;99930.0;;;14.62;53.42
61676;BME280;47574;52.090;5.244;2022-12-29T08:38:18;99931.0;;;14.51;53.79
61676;BME280;47574;52.090;5.244;2022-12-29T08:39:55;99921.0;;;14.53;53.53
61676;BME280;47574;52.090;5.244;2022-12-29T08:43:07;99931.0;;;15.37;52.06
61676;BME280;47574;52.090;5.244;2022-12-29T08:44:43;99939.0;;;14.77;53.21
61676;BME280;47574;52.090;5.244;2022-12-29T08:46:20;99934.0;;;14.88;53.17
61676;BME280;47574;52.090;5.244;2022-12-29T08:49:33;99934.0;;;14.9;52.99
61676;BME280;47574;52.090;5.244;2022-12-29T08:51:09;99944.0;;;15.03;53.11
61676;BME280;47574;52.090;5.244;2022-12-29T08:52:45;99937.0;;;14.8;53.92
61676;BME280;47574;52.090;5.244;2022-12-29T08:54:22;99940.0;;;15.18;53.75
61676;BME280;47574;52.090;5.244;2022-12-29T08:57:36;99940.0;;;14.94;53.87
61676;BME280;47574;52.090;5.244;2022-12-29T08:59:12;99944.0;;;14.52;55.0
61676;BME280;47574;52.090;5.244;2022-12-29T09:00:52;99943.0;;;14.82;54.34
61676;BME280;47574;52.090;5.244;2022-12-29T09:04:04;99948.0;;;14.41;55.61
61676;BME280;47574;52.090;5.244;2022-12-29T09:05:40;99958.0;;;14.79;54.66
61676;BME280;47574;52.090;5.244;2022-12-29T09:07:16;99955.0;;;15.34;54.05
61676;BME280;47574;52.090;5.244;2022-12-29T09:10:29;99962.0;;;14.82;54.95
61676;BME280;47574;52.090;5.244;2022-12-29T09:12:07;99961.0;;;14.98;54.82
61676;BME280;47574;52.090;5.244;2022-12-29T09:13:43;99964.0;;;14.52;56.05
61676;BME280;47574;52.090;5.244;2022-12-29T09:15:20;99973.0;;;14.31;56.58
61676;BME280;47574;52.090;5.244;2022-12-29T09:18:33;99965.0;;;15.07;55.74
61676;BME280;47574;52.090;5.244;2022-12-29T09:20:10;99968.0;;;14.91;55.96
61676;BME280;47574;52.090;5.244;2022-12-29T09:21:46;99982.0;;;14.82;56.33
61676;BME280;47574;52.090;5.244;2022-12-29T09:25:00;99982.0;;;15.03;55.97
61676;BME280;47574;52.090;5.244;2022-12-29T09:26:36;99981.0;;;15.0;56.0
61676;BME280;47574;52.090;5.244;2022-12-29T09:28:12;99990.0;;;14.51;57.09
61676;BME280;47574;52.090;5.244;2022-12-29T09:31:25;100006.0;;;14.5;57.18
61676;BME280;47574;52.090;5.244;2022-12-29T09:33:02;100007.0;;;14.55;57.85
61676;BME280;47574;52.090;5.244;2022-12-29T09:34:39;100014.0;;;14.25;58.92
61676;BME280;47574;52.090;5.244;2022-12-29T09:36:15;100022.0;;;14.64;58.07
61676;BME280;47574;52.090;5.244;2022-12-29T09:39:28;100015.0;;;14.57;58.95
61676;BME280;47574;52.090;5.244;2022-12-29T09:41:08;100021.0;;;14.82;59.05
61676;BME280;47574;52.090;5.244;2022-12-29T09:42:59;100017.0;;;14.68;59.22
61676;BME280;47574;52.090;5.244;2022-12-29T09:44:50;100017.0;;;14.15;60.4
61676;BME280;47574;52.090;5.244;2022-12-29T09:48:20;100023.0;;;14.34;59.99
61676;BME280;47574;52.090;5.244;2022-12-29T09:50:02;100028.0;;;13.85;61.36
61676;BME280;47574;52.090;5.244;2022-12-29T09:51:43;100040.0;;;14.43;59.97
61676;BME280;47574;52.090;5.244;2022-12-29T09:53:25;100033.0;;;13.93;61.13
61676;BME280;47574;52.090;5.244;2022-12-29T09:55:09;100030.0;;;14.41;60.3
61676;BME280;47574;52.090;5.244;2022-12-29T09:58:34;100041.0;;;14.03;61.55
61676;BME280;47574;52.090;5.244;2022-12-29T10:01:56;100035.0;;;13.62;62.18
61676;BME280;47574;52.090;5.244;2022-12-29T10:03:41;100055.0;;;14.24;60.86
61676;BME280;47574;52.090;5.244;2022-12-29T10:07:16;100055.0;;;14.27;60.52
61676;BME280;47574;52.090;5.244;2022-12-29T10:09:02;100052.0;;;14.53;59.98
61676;BME280;47574;52.090;5.244;2022-12-29T10:10:51;100068.0;;;14.62;59.42
61676;BME280;47574;52.090;5.244;2022-12-29T10:12:38;100074.0;;;14.41;60.14
61676;BME280;47574;52.090;5.244;2022-12-29T10:14:35;100065.0;;;14.01;60.89
61676;BME280;47574;52.090;5.244;2022-12-29T10:16:20;100071.0;;;14.34;60.5
61676;BME280;47574;52.090;5.244;2022-12-29T10:20:04;100075.0;;;14.3;60.18
61676;BME280;47574;52.090;5.244;2022-12-29T10:22:00;100075.0;;;14.37;60.18
61676;BME280;47574;52.090;5.244;2022-12-29T10:23:48;100091.0;;;14.73;59.13
61676;BME280;47574;52.090;5.244;2022-12-29T10:25:31;100088.0;;;14.57;59.62
61676;BME280;47574;52.090;5.244;2022-12-29T10:27:12;100093.0;;;14.53;60.34
61676;BME280;47574;52.090;5.244;2022-12-29T10:28:52;100092.0;;;14.42;60.1
61676;BME280;47574;52.090;5.244;2022-12-29T10:32:21;100100.0;;;14.44;60.08
61676;BME280;47574;52.090;5.244;2022-12-29T10:34:12;100089.0;;;14.48;60.21
61676;BME280;47574;52.090;5.244;2022-12-29T10:35:55;100103.0;;;14.26;60.48
61676;BME280;47574;52.090;5.244;2022-12-29T10:39:22;100101.0;;;13.99;61.0
61676;BME280;47574;52.090;5.244;2022-12-29T10:41:11;100108.0;;;14.23;60.96
61676;BME280;47574;52.090;5.244;2022-12-29T10:46:10;100120.0;;;14.41;60.41
61676;BME280;47574;52.090;5.244;2022-12-29T10:47:55;100130.0;;;14.79;59.52
61676;BME280;47574;52.090;5.244;2022-12-29T10:51:21;100139.0;;;14.44;60.2
61676;BME280;47574;52.090;5.244;2022-12-29T10:53:04;100139.0;;;14.69;59.79
61676;BME280;47574;52.090;5.244;2022-12-29T10:54:45;100144.0;;;14.29;60.52
61676;BME280;47574;52.090;5.244;2022-12-29T10:56:30;100156.0;;;14.31;61.12
61676;BME280;47574;52.090;5.244;2022-12-29T10:58:12;100138.0;;;14.01;61.79
61676;BME280;47574;52.090;5.244;2022-12-29T11:01:32;100143.0;;;14.43;60.52
61676;BME280;47574;52.090;5.244;2022-12-29T11:03:35;100155.0;;;14.6;60.3
61676;BME280;47574;52.090;5.244;2022-12-29T11:05:26;100158.0;;;14.7;60.18
61676;BME280;47574;52.090;5.244;2022-12-29T11:07:09;100159.0;;;14.26;60.6
61676;BME280;47574;52.090;5.244;2022-12-29T11:08:52;100166.0;;;14.79;59.59
61676;BME280;47574;52.090;5.244;2022-12-29T11:10:36;100174.0;;;14.84;59.51
61676;BME280;47574;52.090;5.244;2022-12-29T11:13:59;100180.0;;;14.83;59.15
61676;BME280;47574;52.090;5.244;2022-12-29T11:15:39;100174.0;;;14.83;59.51
61676;BME280;47574;52.090;5.244;2022-12-29T11:17:17;100192.0;;;14.65;59.98
61676;BME280;47574;52.090;5.244;2022-12-29T11:20:32;100194.0;;;14.46;60.03
61676;BME280;47574;52.090;5.244;2022-12-29T11:22:18;100196.0;;;14.58;59.89
61676;BME280;47574;52.090;5.244;2022-12-29T11:25:35;100191.0;;;15.04;58.88
61676;BME280;47574;52.090;5.244;2022-12-29T11:30:24;100202.0;;;14.86;58.46
61676;BME280;47574;52.090;5.244;2022-12-29T11:32:11;100203.0;;;14.81;58.86
61676;BME280;47574;52.090;5.244;2022-12-29T11:33:47;100213.0;;;14.45;59.09